createdAt,value
2022-08-24T00:00:35.562Z,17.03
2022-08-24T00:02:38.954Z,16.96
2022-08-24T00:04:42.345Z,16.86
2022-08-24T00:06:50.044Z,16.81
2022-08-24T00:08:56.405Z,16.75
2022-08-24T00:10:59.895Z,16.72
2022-08-24T00:13:03.431Z,16.67
2022-08-24T00:15:09.145Z,16.61
2022-08-24T00:17:12.944Z,16.56
2022-08-24T00:19:17.366Z,16.54
2022-08-24T00:21:20.939Z,16.53
2022-08-24T00:23:24.166Z,16.50
2022-08-24T00:25:29.029Z,16.47
2022-08-24T00:27:32.396Z,16.47
2022-08-24T00:29:36.335Z,16.46
2022-08-24T00:31:39.933Z,16.44
2022-08-24T00:33:43.488Z,16.40
2022-08-24T00:35:46.769Z,16.36
2022-08-24T00:37:51.492Z,16.33
2022-08-24T00:39:54.867Z,16.28
2022-08-24T00:42:00.716Z,16.26
2022-08-24T00:44:06.710Z,16.24
2022-08-24T00:46:18.699Z,16.23
2022-08-24T00:48:27.069Z,16.22
2022-08-24T00:50:36.728Z,16.20
2022-08-24T00:52:45.048Z,16.20
2022-08-24T00:54:52.525Z,16.20
2022-08-24T00:57:02.043Z,16.19
2022-08-24T00:59:11.415Z,16.18
2022-08-24T01:01:15.391Z,16.16
2022-08-24T01:03:19.829Z,16.12
2022-08-24T01:05:23.245Z,16.11
2022-08-24T01:07:29.405Z,16.06
2022-08-24T01:09:32.919Z,16.03
2022-08-24T01:11:36.759Z,16.01
2022-08-24T01:13:43.423Z,15.99
2022-08-24T01:15:49.993Z,15.94
2022-08-24T01:18:10.978Z,15.89
2022-08-24T01:20:14.875Z,15.85
2022-08-24T01:22:41.060Z,15.84
2022-08-24T01:24:47.464Z,15.83
2022-08-24T01:26:52.139Z,15.84
2022-08-24T01:29:01.387Z,15.81
2022-08-24T01:31:05.646Z,15.81
2022-08-24T01:33:11.019Z,15.79
2022-08-24T01:35:14.244Z,15.81
2022-08-24T01:37:17.829Z,15.83
2022-08-24T01:39:25.659Z,15.85
2022-08-24T01:41:30.445Z,15.87
2022-08-24T01:43:37.324Z,15.90
2022-08-24T01:45:43.745Z,15.94
2022-08-24T01:47:47.326Z,15.95
2022-08-24T01:49:51.255Z,15.95
2022-08-24T01:51:58.597Z,15.88
2022-08-24T01:54:03.160Z,15.78
2022-08-24T01:56:07.112Z,15.66
2022-08-24T01:58:12.859Z,15.55
2022-08-24T02:00:18.611Z,15.46
2022-08-24T02:02:26.903Z,15.42
2022-08-24T02:04:30.235Z,15.39
2022-08-24T02:06:33.647Z,15.40
2022-08-24T02:08:37.161Z,15.43
2022-08-24T02:10:40.557Z,15.45
2022-08-24T02:12:58.093Z,15.47
2022-08-24T02:15:03.737Z,15.51
2022-08-24T02:17:08.355Z,15.52
2022-08-24T02:19:12.061Z,15.55
2022-08-24T02:21:16.973Z,15.54
2022-08-24T02:23:20.991Z,15.52
2022-08-24T02:25:25.928Z,15.51
2022-08-24T02:27:29.364Z,15.51
2022-08-24T02:29:32.779Z,15.50
2022-08-24T02:31:38.125Z,15.50
2022-08-24T02:33:42.566Z,15.48
2022-08-24T02:35:46.576Z,15.47
2022-08-24T02:37:50.051Z,15.46
2022-08-24T02:39:53.538Z,15.41
2022-08-24T02:41:58.800Z,15.42
2022-08-24T02:44:02.630Z,15.44
2022-08-24T02:46:06.687Z,15.45
2022-08-24T02:48:19.477Z,15.47
2022-08-24T02:50:23.035Z,15.46
2022-08-24T02:52:26.488Z,15.47
2022-08-24T02:54:30.270Z,15.44
2022-08-24T02:56:33.734Z,15.46
2022-08-24T02:58:37.032Z,15.48
2022-08-24T03:00:41.825Z,15.48
2022-08-24T03:02:45.770Z,15.49
2022-08-24T03:04:50.683Z,15.50
2022-08-24T03:06:54.380Z,15.51
2022-08-24T03:08:57.982Z,15.51
2022-08-24T03:11:01.451Z,15.51
2022-08-24T03:13:05.110Z,15.51
2022-08-24T03:15:11.485Z,15.50
2022-08-24T03:17:15.138Z,15.48
2022-08-24T03:19:18.426Z,15.47
2022-08-24T03:21:23.772Z,15.46
2022-08-24T03:23:28.058Z,15.45
2022-08-24T03:25:37.723Z,15.44
2022-08-24T03:27:41.023Z,15.43
2022-08-24T03:29:44.756Z,15.42
2022-08-24T03:31:48.513Z,15.39
2022-08-24T03:33:52.022Z,15.39
2022-08-24T03:35:55.850Z,15.38
2022-08-24T03:38:01.297Z,15.38
2022-08-24T03:40:05.576Z,15.35
2022-08-24T03:42:10.271Z,15.36
2022-08-24T03:44:13.670Z,15.32
2022-08-24T03:46:20.530Z,15.34
2022-08-24T03:48:24.402Z,15.33
2022-08-24T03:50:28.243Z,15.36
2022-08-24T03:52:33.872Z,15.35
2022-08-24T03:54:39.222Z,15.32
2022-08-24T03:56:42.619Z,15.31
2022-08-24T03:58:46.643Z,15.30
2022-08-24T04:00:50.153Z,15.25
2022-08-24T04:02:53.637Z,15.23
2022-08-24T04:04:58.863Z,15.26
2022-08-24T04:07:02.237Z,15.25
2022-08-24T04:09:08.077Z,15.22
2022-08-24T04:11:19.713Z,15.22
2022-08-24T04:13:22.947Z,15.21
2022-08-24T04:15:26.252Z,15.19
2022-08-24T04:17:31.942Z,15.20
2022-08-24T04:19:36.293Z,15.23
2022-08-24T04:21:40.077Z,15.22
2022-08-24T04:23:46.810Z,15.24
2022-08-24T04:25:51.570Z,15.23
2022-08-24T04:27:56.301Z,15.22
2022-08-24T04:30:00.358Z,15.20
2022-08-24T04:32:09.751Z,15.19
2022-08-24T04:34:14.511Z,15.18
2022-08-24T04:36:20.891Z,15.16
2022-08-24T04:38:25.396Z,15.15
2022-08-24T04:40:49.733Z,15.15
2022-08-24T04:42:55.280Z,15.13
2022-08-24T04:44:59.578Z,15.12
2022-08-24T04:47:02.967Z,15.10
2022-08-24T04:49:06.387Z,15.10
2022-08-24T04:51:14.139Z,15.11
2022-08-24T04:53:18.273Z,15.13
2022-08-24T04:55:24.971Z,15.15
2022-08-24T04:57:28.308Z,15.15
2022-08-24T04:59:35.043Z,15.14
2022-08-24T05:01:38.448Z,15.11
2022-08-24T05:03:44.770Z,15.09
2022-08-24T05:05:50.936Z,15.07
2022-08-24T05:07:56.709Z,15.07
2022-08-24T05:10:00.275Z,15.08
2022-08-24T05:12:03.609Z,15.07
2022-08-24T05:14:11.629Z,15.07
2022-08-24T05:16:18.876Z,15.03
2022-08-24T05:18:23.152Z,15.02
2022-08-24T05:20:26.420Z,15.04
2022-08-24T05:22:30.101Z,15.04
2022-08-24T05:24:34.661Z,15.04
2022-08-24T05:26:39.227Z,15.05
2022-08-24T05:28:43.712Z,15.04
2022-08-24T05:30:47.082Z,15.04
2022-08-24T05:32:55.746Z,15.04
2022-08-24T05:35:01.464Z,15.03
2022-08-24T05:37:06.485Z,15.02
2022-08-24T05:39:24.509Z,15.02
2022-08-24T05:41:31.708Z,15.02
2022-08-24T05:43:44.227Z,15.04
2022-08-24T05:45:47.599Z,15.05
2022-08-24T05:47:50.947Z,15.09
2022-08-24T05:50:21.693Z,15.12
2022-08-24T05:52:25.277Z,15.14
2022-08-24T05:54:28.569Z,15.16
2022-08-24T05:56:35.145Z,15.18
2022-08-24T05:58:39.398Z,15.18
2022-08-24T06:00:45.675Z,15.21
2022-08-24T06:02:53.073Z,15.21
2022-08-24T06:04:58.031Z,15.23
2022-08-24T06:07:02.762Z,15.21
2022-08-24T06:09:07.756Z,15.21
2022-08-24T06:11:13.289Z,15.20
2022-08-24T06:13:17.457Z,15.22
2022-08-24T06:15:22.180Z,15.25
2022-08-24T06:17:27.193Z,15.28
2022-08-24T06:19:30.553Z,15.32
2022-08-24T06:21:34.464Z,15.35
2022-08-24T06:23:40.449Z,15.37
2022-08-24T06:26:02.345Z,15.42
2022-08-24T06:28:05.737Z,15.46
2022-08-24T06:30:11.577Z,15.49
2022-08-24T06:32:17.757Z,15.50
2022-08-24T06:34:21.345Z,15.49
2022-08-24T06:36:24.818Z,15.52
2022-08-24T06:38:29.084Z,15.54
2022-08-24T06:40:34.086Z,15.58
2022-08-24T06:42:37.612Z,15.68
2022-08-24T06:44:53.118Z,15.79
2022-08-24T06:46:59.348Z,15.85
2022-08-24T06:49:03.234Z,15.90
2022-08-24T06:51:12.446Z,15.93
2022-08-24T06:53:16.305Z,15.95
2022-08-24T06:55:20.395Z,15.97
2022-08-24T06:57:25.424Z,16.00
2022-08-24T06:59:29.717Z,16.06
2022-08-24T07:01:33.171Z,16.11
2022-08-24T07:03:37.593Z,16.16
2022-08-24T07:05:57.904Z,16.21
2022-08-24T07:08:16.232Z,16.21
2022-08-24T07:10:22.959Z,16.27
2022-08-24T07:12:30.405Z,16.33
2022-08-24T07:14:34.142Z,16.69
2022-08-24T07:16:39.283Z,17.25
2022-08-24T07:18:49.387Z,17.40
2022-08-24T07:20:56.863Z,17.40
2022-08-24T07:23:07.627Z,17.30
2022-08-24T07:25:13.690Z,17.25
2022-08-24T07:27:18.161Z,17.50
2022-08-24T07:29:47.272Z,17.62
2022-08-24T07:31:49.288Z,17.57
2022-08-24T07:34:11.728Z,17.47
2022-08-24T07:36:22.127Z,17.43
2022-08-24T07:38:26.616Z,17.73
2022-08-24T07:40:36.513Z,18.31
2022-08-24T07:42:55.983Z,18.50
2022-08-24T07:45:02.631Z,18.42
2022-08-24T07:47:27.538Z,18.34
2022-08-24T07:49:37.145Z,18.19
2022-08-24T07:51:44.902Z,18.04
2022-08-24T07:53:53.939Z,17.93
2022-08-24T07:56:04.710Z,17.87
2022-08-24T07:58:10.016Z,17.93
2022-08-24T08:00:19.786Z,18.06
2022-08-24T08:02:30.806Z,18.37
2022-08-24T08:04:40.475Z,18.52
2022-08-24T08:06:44.824Z,18.52
2022-08-24T08:08:48.616Z,18.50
2022-08-24T08:10:52.502Z,18.45
2022-08-24T08:12:56.549Z,18.35
2022-08-24T08:15:00.126Z,18.23
2022-08-24T08:17:05.667Z,18.09
2022-08-24T08:19:10.451Z,17.99
2022-08-24T08:21:31.458Z,17.96
2022-08-24T08:23:54.273Z,17.93
2022-08-24T08:26:09.025Z,17.92
2022-08-24T08:28:35.449Z,17.91
2022-08-24T08:30:42.192Z,17.83
2022-08-24T08:32:47.721Z,17.74
2022-08-24T08:34:51.364Z,17.69
2022-08-24T08:36:55.557Z,17.66
2022-08-24T08:39:00.377Z,17.66
2022-08-24T08:41:24.472Z,17.70
2022-08-24T08:43:57.586Z,17.73
2022-08-24T08:46:17.792Z,17.71
2022-08-24T08:49:04.487Z,17.70
2022-08-24T08:52:00.605Z,17.64
2022-08-24T08:54:39.480Z,17.57
2022-08-24T08:57:11.593Z,17.55
2022-08-24T08:59:31.517Z,17.54
2022-08-24T09:01:49.330Z,17.51
2022-08-24T09:04:25.380Z,17.55
2022-08-24T09:07:09.900Z,17.57
2022-08-24T09:09:49.655Z,17.59
2022-08-24T09:12:02.308Z,17.61
2022-08-24T09:14:21.434Z,17.66
2022-08-24T09:16:36.362Z,17.71
2022-08-24T09:18:57.016Z,17.68
2022-08-24T09:21:37.048Z,17.68
2022-08-24T09:23:55.510Z,17.75
2022-08-24T09:26:05.905Z,17.82
2022-08-24T09:28:17.286Z,17.86
2022-08-24T09:30:24.011Z,17.86
2022-08-24T09:32:39.107Z,17.97
2022-08-24T09:34:54.362Z,18.01
2022-08-24T09:37:09.729Z,18.02
2022-08-24T09:39:37.036Z,18.06
2022-08-24T09:42:20.831Z,18.17
2022-08-24T09:45:06.690Z,18.37
2022-08-24T09:47:59.187Z,18.50
2022-08-24T09:50:21.381Z,18.61
2022-08-24T09:52:44.667Z,18.71
2022-08-24T09:55:24.295Z,18.78
2022-08-24T09:58:01.816Z,18.77
2022-08-24T10:00:13.933Z,18.60
2022-08-24T10:02:38.446Z,18.48
2022-08-24T10:04:52.459Z,18.46
2022-08-24T10:07:08.381Z,18.49
2022-08-24T10:09:53.203Z,18.61
2022-08-24T10:12:05.906Z,18.73
2022-08-24T10:14:20.535Z,18.87
2022-08-24T10:16:39.736Z,18.99
2022-08-24T10:18:56.394Z,19.18
2022-08-24T10:21:15.372Z,19.41
2022-08-24T10:23:42.270Z,19.60
2022-08-24T10:25:54.611Z,19.72
2022-08-24T10:28:07.681Z,19.89
2022-08-24T10:30:32.283Z,20.10
2022-08-24T10:32:50.061Z,20.34
2022-08-24T10:35:05.336Z,20.44
2022-08-24T10:37:42.319Z,20.44
2022-08-24T10:40:13.506Z,20.46
2022-08-24T10:43:05.988Z,20.69
2022-08-24T10:45:21.595Z,20.75
2022-08-24T10:47:31.115Z,20.70
2022-08-24T10:50:32.371Z,20.55
2022-08-24T10:52:54.738Z,20.46
2022-08-24T10:55:12.536Z,20.35
2022-08-24T10:57:28.702Z,20.21
2022-08-24T10:59:38.646Z,20.13
2022-08-24T11:02:11.911Z,20.03
2022-08-24T11:04:30.165Z,20.01
2022-08-24T11:06:37.312Z,20.05
2022-08-24T11:08:54.443Z,20.02
2022-08-24T11:11:10.397Z,20.01
2022-08-24T11:13:23.568Z,19.97
2022-08-24T11:15:28.312Z,19.91
2022-08-24T11:17:35.114Z,19.85
2022-08-24T11:19:40.009Z,19.79
2022-08-24T11:21:50.663Z,19.76
2022-08-24T11:23:54.166Z,19.81
2022-08-24T11:26:03.925Z,19.83
2022-08-24T11:28:15.396Z,19.84
2022-08-24T11:30:26.772Z,19.88
2022-08-24T11:32:34.667Z,19.95
2022-08-24T11:34:41.138Z,20.00
2022-08-24T11:36:44.989Z,20.01
2022-08-24T11:38:48.814Z,20.03
2022-08-24T11:40:56.034Z,19.97
2022-08-24T11:43:13.567Z,19.93
2022-08-24T11:45:26.153Z,19.90
2022-08-24T11:47:43.253Z,19.82
2022-08-24T11:49:56.593Z,19.80
2022-08-24T11:52:09.434Z,19.89
2022-08-24T11:54:24.979Z,19.88
2022-08-24T11:56:37.904Z,19.82
2022-08-24T11:58:51.374Z,19.73
2022-08-24T12:01:02.498Z,19.74
2022-08-24T12:03:16.043Z,19.81
2022-08-24T12:05:27.733Z,19.81
2022-08-24T12:07:44.823Z,19.85
2022-08-24T12:10:01.457Z,19.87
2022-08-24T12:12:14.798Z,19.89
2022-08-24T12:14:24.690Z,19.91
2022-08-24T12:16:35.628Z,19.92
2022-08-24T12:18:52.479Z,19.97
2022-08-24T12:20:58.867Z,20.02
2022-08-24T12:23:07.708Z,20.10
2022-08-24T12:25:27.811Z,20.17
2022-08-24T12:27:35.580Z,20.32
2022-08-24T12:29:44.885Z,20.44
2022-08-24T12:31:54.425Z,20.46
2022-08-24T12:34:02.242Z,20.43
2022-08-24T12:36:15.095Z,20.34
2022-08-24T12:38:25.281Z,20.21
2022-08-24T12:40:33.608Z,20.08
2022-08-24T12:42:51.284Z,20.05
2022-08-24T12:45:01.171Z,20.07
2022-08-24T12:47:05.069Z,20.08
2022-08-24T12:49:16.554Z,20.05
2022-08-24T12:51:28.086Z,20.04
2022-08-24T12:54:13.474Z,20.08
2022-08-24T12:56:40.299Z,20.22
2022-08-24T12:58:59.075Z,20.28
2022-08-24T13:01:06.771Z,20.32
2022-08-24T13:03:27.313Z,20.28
2022-08-24T13:05:43.096Z,20.14
2022-08-24T13:07:50.508Z,20.04
2022-08-24T13:10:09.550Z,19.92
2022-08-24T13:12:50.170Z,19.91
2022-08-24T13:14:54.106Z,19.90
2022-08-24T13:17:14.761Z,19.94
2022-08-24T13:19:33.029Z,20.00
2022-08-24T13:21:47.402Z,20.03
2022-08-24T13:24:31.435Z,20.09
2022-08-24T13:26:36.164Z,20.13
2022-08-24T13:28:45.649Z,20.15
2022-08-24T13:31:01.360Z,20.14
2022-08-24T13:33:11.492Z,20.13
2022-08-24T13:35:37.247Z,20.15
2022-08-24T13:37:41.672Z,20.15
2022-08-24T13:40:08.341Z,20.14
2022-08-24T13:42:38.140Z,20.14
2022-08-24T13:45:01.175Z,20.15
2022-08-24T13:47:13.892Z,20.19
2022-08-24T13:49:34.410Z,20.22
2022-08-24T13:51:46.277Z,20.22
2022-08-24T13:54:04.278Z,20.24
2022-08-24T13:56:33.532Z,20.24
2022-08-24T13:58:44.123Z,20.27
2022-08-24T14:00:53.216Z,20.30
2022-08-24T14:03:11.020Z,20.28
2022-08-24T14:05:26.326Z,20.29
2022-08-24T14:07:34.892Z,20.33
2022-08-24T14:09:49.184Z,20.33
2022-08-24T14:12:19.407Z,20.29
2022-08-24T14:14:39.994Z,20.25
2022-08-24T14:17:19.473Z,20.23
2022-08-24T14:19:32.362Z,20.20
2022-08-24T14:21:41.426Z,20.13
2022-08-24T14:23:59.370Z,20.07
2022-08-24T14:26:40.447Z,20.01
2022-08-24T14:28:45.803Z,20.02
2022-08-24T14:30:54.342Z,20.02
2022-08-24T14:33:13.468Z,19.94
2022-08-24T14:35:27.791Z,19.91
2022-08-24T14:37:35.556Z,19.91
2022-08-24T14:39:49.234Z,19.90
2022-08-24T14:41:59.645Z,19.90
2022-08-24T14:44:35.605Z,19.85
2022-08-24T14:46:50.278Z,19.85
2022-08-24T14:49:04.274Z,19.85
2022-08-24T14:51:20.531Z,19.82
2022-08-24T14:53:45.599Z,19.76
2022-08-24T14:56:02.513Z,19.71
2022-08-24T14:58:29.002Z,19.72
2022-08-24T15:00:57.844Z,19.71
2022-08-24T15:03:30.094Z,19.69
2022-08-24T15:05:43.174Z,19.71
2022-08-24T15:07:56.249Z,19.68
2022-08-24T15:10:02.505Z,19.66
2022-08-24T15:12:15.678Z,19.60
2022-08-24T15:14:37.345Z,19.57
2022-08-24T15:16:54.092Z,19.55
2022-08-24T15:19:08.307Z,19.54
2022-08-24T15:21:31.538Z,19.50
2022-08-24T15:23:54.463Z,19.52
2022-08-24T15:26:06.049Z,19.55
2022-08-24T15:28:13.605Z,19.57
2022-08-24T15:30:23.796Z,19.59
2022-08-24T15:32:45.333Z,19.59
2022-08-24T15:34:53.392Z,19.59
2022-08-24T15:37:01.917Z,19.57
2022-08-24T15:39:07.632Z,19.57
2022-08-24T15:41:15.965Z,19.56
2022-08-24T15:43:19.924Z,19.57
2022-08-24T15:45:24.412Z,19.61
2022-08-24T15:47:32.778Z,19.64
2022-08-24T15:49:46.573Z,19.65
2022-08-24T15:51:53.549Z,19.69
2022-08-24T15:53:57.332Z,19.74
2022-08-24T15:56:23.787Z,19.81
2022-08-24T15:58:33.536Z,19.85
2022-08-24T16:00:55.975Z,19.95
2022-08-24T16:03:21.925Z,20.09
2022-08-24T16:05:38.786Z,20.16
2022-08-24T16:08:07.649Z,20.18
2022-08-24T16:10:14.415Z,20.22
2022-08-24T16:12:24.408Z,20.21
2022-08-24T16:14:31.206Z,20.22
2022-08-24T16:16:40.646Z,20.27
2022-08-24T16:18:51.603Z,20.33
2022-08-24T16:20:59.167Z,20.37
2022-08-24T16:23:06.420Z,20.36
2022-08-24T16:25:19.709Z,20.31
2022-08-24T16:27:23.063Z,20.21
2022-08-24T16:29:46.278Z,20.11
2022-08-24T16:31:53.209Z,20.05
2022-08-24T16:34:14.301Z,19.96
2022-08-24T16:36:20.845Z,19.90
2022-08-24T16:38:24.705Z,19.82
2022-08-24T16:40:31.489Z,19.71
2022-08-24T16:42:36.456Z,19.61
2022-08-24T16:44:42.890Z,19.56
2022-08-24T16:46:48.060Z,19.50
2022-08-24T16:48:54.338Z,19.48
2022-08-24T16:50:59.522Z,19.53
2022-08-24T16:53:03.008Z,19.56
2022-08-24T16:55:07.566Z,19.58
2022-08-24T16:57:15.473Z,19.59
2022-08-24T16:59:25.545Z,19.57
2022-08-24T17:01:29.096Z,19.52
2022-08-24T17:03:33.305Z,19.50
2022-08-24T17:05:37.124Z,19.50
2022-08-24T17:07:45.357Z,19.50
2022-08-24T17:09:50.062Z,19.51
2022-08-24T17:11:53.691Z,19.55
2022-08-24T17:13:57.302Z,19.54
2022-08-24T17:16:01.058Z,19.52
2022-08-24T17:18:07.780Z,19.51
2022-08-24T17:20:12.381Z,19.51
2022-08-24T17:22:16.616Z,19.48
2022-08-24T17:24:23.755Z,19.45
2022-08-24T17:26:28.013Z,19.42
2022-08-24T17:28:31.694Z,19.40
2022-08-24T17:30:35.560Z,19.38
2022-08-24T17:32:39.535Z,19.37
2022-08-24T17:34:43.167Z,19.34
2022-08-24T17:36:47.033Z,19.33
2022-08-24T17:38:56.045Z,19.32
2022-08-24T17:41:02.256Z,19.32
2022-08-24T17:43:05.877Z,19.32
2022-08-24T17:45:10.433Z,19.32
2022-08-24T17:47:15.632Z,19.33
2022-08-24T17:49:19.754Z,19.34
2022-08-24T17:51:23.607Z,19.32
2022-08-24T17:53:27.526Z,19.31
2022-08-24T17:55:31.137Z,19.26
2022-08-24T17:57:36.690Z,19.22
2022-08-24T17:59:40.634Z,19.17
2022-08-24T18:01:44.651Z,19.14
2022-08-24T18:03:48.329Z,19.10
2022-08-24T18:05:52.753Z,19.07
2022-08-24T18:07:57.621Z,19.03
2022-08-24T18:10:01.478Z,19.00
2022-08-24T18:12:06.512Z,19.00
2022-08-24T18:14:11.638Z,18.99
2022-08-24T18:16:18.911Z,18.98
2022-08-24T18:18:22.539Z,18.97
2022-08-24T18:20:28.372Z,18.93
2022-08-24T18:22:32.062Z,18.91
2022-08-24T18:24:36.192Z,18.89
2022-08-24T18:26:41.048Z,18.89
2022-08-24T18:28:51.643Z,18.85
2022-08-24T18:30:56.843Z,18.82
2022-08-24T18:33:01.917Z,18.80
2022-08-24T18:35:06.052Z,18.76
2022-08-24T18:37:09.961Z,18.72
2022-08-24T18:39:13.583Z,18.67
2022-08-24T18:41:17.481Z,18.63
2022-08-24T18:43:24.068Z,18.57
2022-08-24T18:45:32.617Z,18.53
2022-08-24T18:47:38.102Z,18.50
2022-08-24T18:49:41.792Z,18.46
2022-08-24T18:51:48.289Z,18.42
2022-08-24T18:53:53.426Z,18.40
2022-08-24T18:55:57.766Z,18.37
2022-08-24T18:58:03.375Z,18.35
2022-08-24T19:00:10.049Z,18.33
2022-08-24T19:02:33.790Z,18.32
2022-08-24T19:04:43.944Z,18.27
2022-08-24T19:06:47.799Z,18.24
2022-08-24T19:08:51.795Z,18.20
2022-08-24T19:10:56.084Z,18.17
2022-08-24T19:13:02.361Z,18.16
2022-08-24T19:15:06.999Z,18.13
2022-08-24T19:17:10.647Z,18.10
2022-08-24T19:19:14.253Z,18.06
2022-08-24T19:21:20.713Z,18.04
2022-08-24T19:23:26.613Z,18.01
2022-08-24T19:25:30.401Z,17.98
2022-08-24T19:27:34.568Z,17.95
2022-08-24T19:29:55.164Z,17.92
2022-08-24T19:31:59.405Z,17.90
2022-08-24T19:34:03.783Z,17.87
2022-08-24T19:36:07.896Z,17.85
2022-08-24T19:38:12.876Z,17.83
2022-08-24T19:40:18.776Z,17.77
2022-08-24T19:42:23.915Z,17.71
2022-08-24T19:44:51.689Z,17.65
2022-08-24T19:46:55.924Z,17.58
2022-08-24T19:48:59.873Z,17.52
2022-08-24T19:51:04.892Z,17.50
2022-08-24T19:53:10.443Z,17.47
2022-08-24T19:55:17.606Z,17.43
2022-08-24T19:57:42.130Z,17.38
2022-08-24T19:59:46.542Z,17.35
2022-08-24T20:01:50.537Z,17.31
2022-08-24T20:03:54.615Z,17.24
2022-08-24T20:05:58.427Z,17.19
2022-08-24T20:08:03.726Z,17.15
2022-08-24T20:10:12.806Z,17.14
2022-08-24T20:12:18.250Z,17.13
2022-08-24T20:14:21.946Z,17.11
2022-08-24T20:16:29.729Z,17.08
2022-08-24T20:18:35.412Z,17.04
2022-08-24T20:20:39.517Z,17.01
2022-08-24T20:22:43.824Z,16.96
2022-08-24T20:24:47.627Z,16.92
2022-08-24T20:26:51.247Z,16.88
2022-08-24T20:28:59.099Z,16.86
2022-08-24T20:31:02.973Z,16.84
2022-08-24T20:33:11.258Z,16.81
2022-08-24T20:35:15.291Z,16.79
2022-08-24T20:37:22.925Z,16.80
2022-08-24T20:39:28.953Z,16.79
2022-08-24T20:41:32.591Z,16.76
2022-08-24T20:43:36.492Z,16.78
2022-08-24T20:45:41.918Z,16.80
2022-08-24T20:47:50.942Z,16.80
2022-08-24T20:49:54.650Z,16.78
2022-08-24T20:51:58.450Z,16.75
2022-08-24T20:54:02.768Z,16.72
2022-08-24T20:56:12.002Z,16.70
2022-08-24T20:58:19.203Z,16.65
2022-08-24T21:00:24.878Z,16.58
2022-08-24T21:02:30.492Z,16.50
2022-08-24T21:04:34.370Z,16.44
2022-08-24T21:06:39.125Z,16.42
2022-08-24T21:08:45.272Z,16.41
2022-08-24T21:10:49.093Z,16.39
2022-08-24T21:12:53.439Z,16.33
2022-08-24T21:14:57.036Z,16.28
2022-08-24T21:17:01.101Z,16.22
2022-08-24T21:19:06.118Z,16.16
2022-08-24T21:21:10.951Z,16.11
2022-08-24T21:23:14.545Z,16.05
2022-08-24T21:25:18.848Z,16.00
2022-08-24T21:27:22.474Z,15.98
2022-08-24T21:29:25.957Z,15.94
2022-08-24T21:31:30.264Z,15.89
2022-08-24T21:33:52.033Z,15.86
2022-08-24T21:35:57.108Z,15.83
2022-08-24T21:38:01.079Z,15.80
2022-08-24T21:40:06.634Z,15.78
2022-08-24T21:42:10.780Z,15.74
2022-08-24T21:44:14.445Z,15.70
2022-08-24T21:46:18.675Z,15.70
2022-08-24T21:48:22.615Z,15.68
2022-08-24T21:50:26.828Z,15.66
2022-08-24T21:52:32.449Z,15.66
2022-08-24T21:54:36.359Z,15.63
2022-08-24T21:56:40.695Z,15.60
2022-08-24T21:58:45.670Z,15.53
2022-08-24T22:00:49.614Z,15.50
2022-08-24T22:02:53.293Z,15.49
2022-08-24T22:04:57.541Z,15.45
2022-08-24T22:07:02.589Z,15.42
2022-08-24T22:09:08.643Z,15.38
2022-08-24T22:11:13.094Z,15.33
2022-08-24T22:13:16.965Z,15.30
2022-08-24T22:15:23.315Z,15.27
2022-08-24T22:17:27.193Z,15.27
2022-08-24T22:19:30.963Z,15.22
2022-08-24T22:21:36.499Z,15.19
2022-08-24T22:23:41.081Z,15.19
2022-08-24T22:25:47.088Z,15.18
2022-08-24T22:27:51.101Z,15.17
2022-08-24T22:29:54.841Z,15.18
2022-08-24T22:31:58.524Z,15.15
2022-08-24T22:34:04.443Z,15.14
2022-08-24T22:36:10.936Z,15.13
2022-08-24T22:38:15.005Z,15.13
2022-08-24T22:40:19.256Z,15.14
2022-08-24T22:42:24.599Z,15.14
2022-08-24T22:44:29.187Z,15.13
2022-08-24T22:46:33.413Z,15.10
2022-08-24T22:48:37.680Z,15.09
2022-08-24T22:50:46.170Z,15.07
2022-08-24T22:52:49.844Z,15.03
2022-08-24T22:54:56.717Z,15.03
2022-08-24T22:57:00.446Z,15.00
2022-08-24T22:59:08.699Z,14.98
2022-08-24T23:01:20.128Z,14.96
2022-08-24T23:03:24.147Z,14.91
2022-08-24T23:05:27.990Z,14.88
2022-08-24T23:07:31.700Z,14.81
2022-08-24T23:09:44.789Z,14.71
2022-08-24T23:11:49.348Z,14.69
2022-08-24T23:13:53.296Z,14.65
2022-08-24T23:15:58.617Z,14.59
2022-08-24T23:18:23.733Z,14.54
2022-08-24T23:20:26.243Z,14.48
2022-08-24T23:22:32.718Z,14.44
2022-08-24T23:24:37.300Z,14.48
2022-08-24T23:26:42.098Z,14.52
2022-08-24T23:28:50.190Z,14.53
2022-08-24T23:30:54.167Z,14.53
2022-08-24T23:32:59.644Z,14.52
2022-08-24T23:35:03.914Z,14.52
2022-08-24T23:37:08.131Z,14.51
2022-08-24T23:39:14.393Z,14.47
2022-08-24T23:41:20.254Z,14.47
2022-08-24T23:43:23.918Z,14.47
2022-08-24T23:45:28.316Z,14.45
2022-08-24T23:47:35.942Z,14.43
2022-08-24T23:49:42.054Z,14.43
2022-08-24T23:51:45.807Z,14.44
2022-08-24T23:53:50.761Z,14.42
2022-08-24T23:55:55.370Z,14.42
2022-08-24T23:57:59.241Z,14.42
